Time;durP1;ratioP1;P1;durP2;ratioP2;P2;SDS_P1;SDS_P2;PMS_P1;PMS_P2;Temp;Humidity;BMP_temperature;BMP_pressure;BME280_temperature;BME280_humidity;BME280_pressure;Samples;Min_cycle;Max_cycle;Signal;HPM_P1;HPM_P2
2023/08/27 00:02:31;;;;;;;1.33;0.70;;;;;;;15.82;100.00;97978.28;15297384;19;20039;-83
2023/08/27 00:07:58;;;;;;;1.58;0.90;;;;;;;15.75;100.00;97963.00;15300546;19;20030;-83
2023/08/27 00:13:23;;;;;;;1.73;0.80;;;;;;;15.66;100.00;97957.78;15294828;19;20073;-84
2023/08/27 00:18:48;;;;;;;2.63;0.80;;;;;;;15.61;100.00;97959.44;15297135;19;20022;-84
2023/08/27 00:24:17;;;;;;;2.55;0.90;;;;;;;15.54;100.00;97957.53;15303324;19;20086;-84
2023/08/27 00:29:41;;;;;;;1.60;0.90;;;;;;;15.50;100.00;97966.28;15295336;19;20021;-83
2023/08/27 00:35:06;;;;;;;1.25;0.80;;;;;;;15.49;100.00;97962.75;15299481;19;20018;-83
2023/08/27 00:40:34;;;;;;;2.10;0.90;;;;;;;15.51;100.00;97932.66;15307552;19;20018;-84
2023/08/27 00:46:02;;;;;;;1.00;0.90;;;;;;;15.53;100.00;97957.75;15315494;19;20026;-84
2023/08/27 00:51:28;;;;;;;1.58;0.90;;;;;;;15.57;100.00;97959.00;15294854;19;20022;-83
2023/08/27 00:56:57;;;;;;;2.67;1.05;;;;;;;15.50;100.00;97931.84;15296798;19;20007;-84
2023/08/27 01:02:23;;;;;;;2.00;0.95;;;;;;;15.46;100.00;97927.03;15290406;19;20023;-83
2023/08/27 01:07:55;;;;;;;1.17;0.80;;;;;;;15.38;100.00;97933.50;15295424;19;20010;-83
2023/08/27 01:13:34;;;;;;;2.17;0.95;;;;;;;15.31;100.00;97938.88;15293485;19;20375;-84
2023/08/27 01:19:08;;;;;;;2.78;0.93;;;;;;;15.24;100.00;97951.59;15295369;19;20024;-84
2023/08/27 01:24:37;;;;;;;2.20;0.98;;;;;;;15.15;100.00;97934.66;15304884;19;20419;-84
2023/08/27 01:30:16;;;;;;;2.15;0.80;;;;;;;15.07;100.00;97894.97;15303424;19;20039;-84
2023/08/27 01:35:42;;;;;;;1.63;0.98;;;;;;;15.00;100.00;97898.69;15300604;19;20018;-84
2023/08/27 01:41:10;;;;;;;2.20;0.95;;;;;;;14.93;100.00;97899.50;15300138;19;20359;-84
2023/08/27 01:46:35;;;;;;;1.48;0.75;;;;;;;14.91;100.00;97907.03;15322166;19;20074;-83
2023/08/27 01:52:01;;;;;;;2.67;0.98;;;;;;;14.84;100.00;97910.75;15314567;19;20492;-84
2023/08/27 01:57:29;;;;;;;2.70;0.90;;;;;;;14.72;100.00;97914.03;15315322;19;20015;-84
2023/08/27 02:02:57;;;;;;;3.10;0.80;;;;;;;14.66;100.00;97924.78;15314304;19;20079;-85
2023/08/27 02:08:22;;;;;;;2.45;0.90;;;;;;;14.57;100.00;97933.09;15316314;19;20406;-84
2023/08/27 02:13:50;;;;;;;3.60;0.90;;;;;;;14.57;100.00;97948.50;15311402;19;20029;-84
2023/08/27 02:19:17;;;;;;;1.48;0.95;;;;;;;14.57;100.00;97948.50;15317034;19;20100;-83
2023/08/27 02:24:42;;;;;;;2.47;0.90;;;;;;;14.56;100.00;97963.09;15321355;19;20015;-85
2023/08/27 02:30:11;;;;;;;2.78;0.90;;;;;;;14.56;100.00;97966.66;15324370;19;20011;-85
2023/08/27 02:35:49;;;;;;;2.22;1.00;;;;;;;14.56;100.00;97952.25;15310835;19;20014;-84
2023/08/27 02:41:14;;;;;;;1.83;1.10;;;;;;;14.52;100.00;97949.09;15309047;19;20027;-86
2023/08/27 02:46:42;;;;;;;1.95;1.20;;;;;;;14.56;100.00;97984.78;15304970;19;20010;-83
2023/08/27 02:52:07;;;;;;;1.75;1.10;;;;;;;14.58;100.00;97980.00;15298832;19;20039;-84
2023/08/27 02:57:32;;;;;;;1.95;1.00;;;;;;;14.59;100.00;97973.56;15296997;19;20022;-83
2023/08/27 03:03:00;;;;;;;4.47;1.17;;;;;;;14.60;100.00;97976.06;15296178;19;20018;-83
2023/08/27 03:08:25;;;;;;;2.85;1.00;;;;;;;14.57;100.00;97998.16;15300566;19;20007;-84
2023/08/27 03:13:51;;;;;;;2.78;1.00;;;;;;;14.56;100.00;97992.91;15297625;19;20082;-84
2023/08/27 03:19:19;;;;;;;1.73;0.90;;;;;;;14.55;100.00;97951.44;15299935;19;20025;-84
2023/08/27 03:24:44;;;;;;;1.27;0.90;;;;;;;14.51;100.00;97931.16;15301421;19;20025;-85
2023/08/27 03:30:08;;;;;;;1.83;1.00;;;;;;;14.48;100.00;97948.66;15301315;19;20085;-84
2023/08/27 03:35:35;;;;;;;2.50;1.10;;;;;;;14.43;100.00;97963.84;15300319;19;20407;-84
2023/08/27 03:41:02;;;;;;;2.10;1.00;;;;;;;14.40;100.00;97967.81;15295107;19;20029;-83
2023/08/27 03:46:27;;;;;;;1.30;1.00;;;;;;;14.38;100.00;97950.91;15304425;19;20023;-83
2023/08/27 03:51:54;;;;;;;3.35;1.25;;;;;;;14.39;100.00;97955.28;15298189;19;20357;-84
2023/08/27 03:57:20;;;;;;;2.63;1.02;;;;;;;14.40;100.00;97959.66;15297297;19;20019;-84
2023/08/27 04:02:45;;;;;;;1.95;1.00;;;;;;;14.40;100.00;97948.84;15295238;19;20014;-84
2023/08/27 04:08:13;;;;;;;1.42;0.95;;;;;;;14.41;100.00;97953.19;15304997;19;20009;-85
2023/08/27 04:13:40;;;;;;;3.13;1.20;;;;;;;14.40;100.00;97970.50;15290565;19;20018;-85
2023/08/27 04:19:05;;;;;;;2.35;1.20;;;;;;;14.41;100.00;97974.88;15300827;19;20026;-84
2023/08/27 04:24:32;;;;;;;2.13;1.17;;;;;;;14.41;100.00;97965.91;15315707;19;20014;-85
2023/08/27 04:30:01;;;;;;;2.67;1.30;;;;;;;14.40;100.00;97965.09;15326509;19;20447;-85
2023/08/27 04:35:18;;;;;;;1.75;1.10;;;;;;;14.41;100.00;97961.31;15304853;19;20006;-86
2023/08/27 04:40:45;;;;;;;3.20;1.20;;;;;;;14.42;100.00;97956.75;15304432;19;20030;-84
2023/08/27 04:46:10;;;;;;;2.08;1.10;;;;;;;14.40;100.00;97973.22;15293900;19;20022;-85
2023/08/27 04:51:35;;;;;;;2.22;1.10;;;;;;;14.41;100.00;97964.03;15295584;19;20009;-86
2023/08/27 04:57:02;;;;;;;1.45;1.08;;;;;;;14.43;100.00;97975.50;15294536;19;20022;-85
2023/08/27 05:02:28;;;;;;;3.13;1.10;;;;;;;14.45;100.00;97983.47;15292045;19;20011;-85
2023/08/27 05:07:54;;;;;;;2.63;1.00;;;;;;;14.48;100.00;97977.63;15298667;19;20018;-83
2023/08/27 05:13:23;;;;;;;2.42;1.30;;;;;;;14.51;100.00;97981.84;15300189;19;20018;-85
2023/08/27 05:18:47;;;;;;;4.90;1.10;;;;;;;14.49;100.00;98006.41;15295848;19;20014;-83
2023/08/27 05:24:12;;;;;;;2.50;1.10;;;;;;;14.52;100.00;98000.59;15307423;19;20038;-83
2023/08/27 05:29:40;;;;;;;2.55;1.20;;;;;;;14.54;100.00;97994.97;15307013;19;20644;-85
2023/08/27 05:35:05;;;;;;;2.53;1.23;;;;;;;14.56;100.00;97990.19;15317431;19;20023;-84
2023/08/27 05:40:30;;;;;;;2.53;0.98;;;;;;;14.58;100.00;97983.53;15306317;19;20035;-83
2023/08/27 05:45:58;;;;;;;1.73;1.00;;;;;;;14.63;100.00;97986.50;15309043;19;20470;-85
2023/08/27 05:51:25;;;;;;;2.40;0.95;;;;;;;14.67;100.00;98003.25;15295256;19;20498;-86
2023/08/27 05:56:51;;;;;;;2.38;1.05;;;;;;;14.75;100.00;98029.38;15304273;19;20270;-85
2023/08/27 06:02:18;;;;;;;2.63;1.10;;;;;;;14.79;100.00;98022.53;15301305;19;20035;-86
2023/08/27 06:07:44;;;;;;;1.67;1.00;;;;;;;14.85;100.00;98021.72;15306743;19;20038;-85
2023/08/27 06:13:12;;;;;;;1.55;1.02;;;;;;;14.91;100.00;98006.53;15299064;19;20010;-85
2023/08/27 06:18:41;;;;;;;2.22;1.00;;;;;;;14.99;100.00;97986.53;15299637;19;20015;-85
2023/08/27 06:24:13;;;;;;;2.15;1.00;;;;;;;15.04;100.00;97976.75;15297070;19;20011;-84
2023/08/27 06:29:38;;;;;;;1.73;1.10;;;;;;;15.11;100.00;97963.22;15299279;19;20519;-85
2023/08/27 06:35:09;;;;;;;2.65;1.17;;;;;;;15.19;100.00;97965.75;15305541;19;20491;-84
2023/08/27 06:40:35;;;;;;;2.20;1.10;;;;;;;15.29;100.00;97957.25;15317846;19;20086;-84
2023/08/27 06:45:59;;;;;;;3.50;1.10;;;;;;;15.35;100.00;97944.75;15313958;19;20017;-85
2023/08/27 06:51:35;;;;;;;2.75;1.10;;;;;;;15.41;100.00;97933.06;15309786;19;20304;-86
2023/08/27 06:57:02;;;;;;;2.28;1.00;;;;;;;15.45;100.00;97925.38;15305435;19;20011;-86
2023/08/27 07:02:28;;;;;;;3.15;1.10;;;;;;;15.53;100.00;97914.31;15309686;19;20345;-85
2023/08/27 07:07:55;;;;;;;3.75;1.17;;;;;;;15.59;100.00;97880.88;15317260;19;20011;-88
2023/08/27 07:13:22;;;;;;;2.60;1.40;;;;;;;15.62;100.00;97853.31;15317351;19;20023;-87
2023/08/27 07:18:54;;;;;;;3.13;1.35;;;;;;;15.65;100.00;97858.34;15319938;19;20010;-88
2023/08/27 07:24:29;;;;;;;3.42;1.45;;;;;;;15.71;100.00;97883.84;15317883;19;20037;-86
2023/08/27 07:29:56;;;;;;;2.40;1.40;;;;;;;15.77;100.00;97893.84;15313856;19;20026;-84
2023/08/27 07:35:21;;;;;;;2.58;1.50;;;;;;;15.84;100.00;97880.28;15346494;19;20017;-83
2023/08/27 07:40:51;;;;;;;1.67;1.15;;;;;;;15.90;100.00;97882.22;15353255;19;20009;-83
2023/08/27 07:46:15;;;;;;;2.25;1.30;;;;;;;15.97;100.00;97884.94;15358640;19;20062;-83
2023/08/27 07:51:41;;;;;;;3.17;1.42;;;;;;;15.90;100.00;97903.09;15291962;19;20407;-87
2023/08/27 07:57:08;;;;;;;5.57;1.80;;;;;;;15.88;100.00;97900.59;15300254;19;20018;-85
2023/08/27 08:02:35;;;;;;;3.50;1.80;;;;;;;15.93;100.00;97887.22;15293348;19;20035;-86
2023/08/27 08:07:59;;;;;;;2.45;1.60;;;;;;;16.06;100.00;97904.53;15302141;19;20042;-86
2023/08/27 08:13:27;;;;;;;2.65;1.50;;;;;;;16.15;100.00;97897.88;15311493;19;20042;-84
2023/08/27 08:18:52;;;;;;;3.53;1.55;;;;;;;16.23;100.00;97875.91;15297034;19;20022;-85
2023/08/27 08:24:23;;;;;;;1.73;1.40;;;;;;;16.25;100.00;97854.78;15294738;19;20010;-85
2023/08/27 08:29:52;;;;;;;2.72;1.50;;;;;;;16.18;100.00;97878.41;15289258;19;20073;-85
2023/08/27 08:35:18;;;;;;;3.13;1.40;;;;;;;16.15;100.00;97884.28;15281521;19;20010;-84
2023/08/27 08:58:01;;;;;;;2.08;1.35;;;;;;;16.68;100.00;97836.25;15282700;19;20312;-86
2023/08/27 09:03:30;;;;;;;2.03;1.27;;;;;;;16.83;100.00;97852.31;15281500;19;20035;-85
2023/08/27 09:08:58;;;;;;;3.30;1.30;;;;;;;16.92;100.00;97819.19;15299557;19;20010;-89
2023/08/27 09:14:25;;;;;;;2.50;1.15;;;;;;;17.00;100.00;97830.91;15298769;19;20022;-87
2023/08/27 09:19:51;;;;;;;2.70;1.15;;;;;;;17.08;100.00;97830.66;15287216;19;20022;-86
2023/08/27 09:25:18;;;;;;;1.13;1.00;;;;;;;17.09;100.00;97829.63;15285020;19;20022;-87
2023/08/27 09:30:46;;;;;;;2.72;1.10;;;;;;;17.11;100.00;97816.59;15291572;19;20459;-88
2023/08/27 09:36:13;;;;;;;4.22;1.00;;;;;;;17.10;100.00;97804.91;15271301;19;20086;-86
2023/08/27 09:41:40;;;;;;;2.08;1.20;;;;;;;17.13;100.00;97825.38;15280977;19;20633;-87
2023/08/27 09:47:15;;;;;;;0.80;0.80;;;;;;;17.12;100.00;97850.94;15297451;19;20101;-87
2023/08/27 09:52:40;;;;;;;3.72;1.25;;;;;;;17.08;100.00;97839.66;15279620;19;20014;-86
2023/08/27 09:58:06;;;;;;;1.38;1.10;;;;;;;17.15;100.00;97817.84;15279575;19;20397;-86
2023/08/27 10:03:35;;;;;;;2.13;1.10;;;;;;;17.17;100.00;97806.75;15284991;19;20021;-87
2023/08/27 10:09:03;;;;;;;1.90;1.20;;;;;;;17.16;100.00;97835.84;15289981;19;20014;-89
2023/08/27 10:14:28;;;;;;;2.00;1.20;;;;;;;17.10;100.00;97817.69;15299352;19;20029;-87
2023/08/27 10:19:56;;;;;;;1.67;1.00;;;;;;;17.12;100.00;97823.72;15292091;19;20015;-86
2023/08/27 10:25:22;;;;;;;3.13;1.10;;;;;;;17.12;100.00;97829.16;15308523;19;20461;-86
2023/08/27 10:30:47;;;;;;;1.80;1.00;;;;;;;17.15;100.00;97815.13;15303419;19;20086;-86
2023/08/27 10:36:21;;;;;;;3.45;1.08;;;;;;;17.24;100.00;97792.03;15297690;19;20012;-86
2023/08/27 10:41:45;;;;;;;1.50;0.88;;;;;;;17.32;100.00;97769.16;15282627;19;20014;-85
2023/08/27 10:47:12;;;;;;;1.15;0.98;;;;;;;17.35;100.00;97773.31;15295908;19;20583;-86
2023/08/27 10:52:57;;;;;;;1.20;0.73;;;;;;;17.47;100.00;97771.53;15288409;19;20022;-86
2023/08/27 10:58:24;;;;;;;1.02;0.60;;;;;;;17.56;100.00;97753.88;15293618;19;20085;-84
2023/08/27 11:04:05;;;;;;;0.93;0.70;;;;;;;17.64;100.00;97730.97;15291215;19;20020;-88
2023/08/27 11:09:39;;;;;;;0.87;0.80;;;;;;;17.71;100.00;97706.38;15295564;19;20011;-86
2023/08/27 11:15:17;;;;;;;1.15;0.70;;;;;;;17.93;100.00;97703.25;15286765;19;20015;-86
2023/08/27 11:20:51;;;;;;;1.45;0.70;;;;;;;18.05;100.00;97689.72;15290116;19;20066;-85
2023/08/27 11:26:20;;;;;;;0.88;0.70;;;;;;;18.05;100.00;97709.59;15291261;19;20018;-85
2023/08/27 11:31:47;;;;;;;1.52;0.70;;;;;;;17.95;100.00;97733.81;15283139;19;20019;-85
2023/08/27 11:37:15;;;;;;;2.42;0.70;;;;;;;17.80;100.00;97748.66;15295213;19;20478;-87
2023/08/27 11:42:46;;;;;;;1.13;0.75;;;;;;;17.65;100.00;97746.25;15307211;19;20071;-85
2023/08/27 11:48:12;;;;;;;1.25;0.80;;;;;;;17.63;100.00;97752.97;15307277;19;20024;-84
2023/08/27 11:53:47;;;;;;;1.95;0.90;;;;;;;17.61;100.00;97750.50;15303459;19;20087;-82
2023/08/27 11:59:15;;;;;;;1.48;0.90;;;;;;;17.61;100.00;97749.66;15309193;19;20094;-88
2023/08/27 12:04:54;;;;;;;1.23;0.70;;;;;;;17.59;100.00;97738.13;15335680;19;20006;-84
2023/08/27 12:10:24;;;;;;;2.72;1.00;;;;;;;17.61;100.00;97745.06;15308065;19;20018;-85
2023/08/27 12:15:50;;;;;;;1.10;0.80;;;;;;;17.60;100.00;97737.94;15305988;19;20025;-89
2023/08/27 12:21:15;;;;;;;1.17;0.80;;;;;;;17.62;100.00;97744.00;15298994;19;20010;-86
2023/08/27 12:26:52;;;;;;;2.72;0.90;;;;;;;17.64;100.00;97738.31;15309442;19;20049;-89
2023/08/27 12:32:25;;;;;;;1.60;0.73;;;;;;;17.73;100.00;97731.50;15300586;19;20006;-86
2023/08/27 12:37:51;;;;;;;1.60;0.80;;;;;;;17.90;100.00;97725.50;15303379;19;20292;-87
2023/08/27 12:43:23;;;;;;;1.20;0.80;;;;;;;17.98;100.00;97719.75;15293351;19;20011;-84
2023/08/27 12:48:42;;;;;;;1.65;0.68;;;;;;;18.03;100.00;97736.28;15294712;19;20105;-87
2023/08/27 12:54:13;;;;;;;2.28;0.70;;;;;;;18.02;100.00;97745.50;15296936;19;20007;-85
2023/08/27 12:59:31;;;;;;;2.65;0.80;;;;;;;18.02;100.00;97753.69;15292413;19;20365;-84
2023/08/27 13:04:59;;;;;;;1.25;0.80;;;;;;;17.94;100.00;97759.38;15298133;19;20031;-85
2023/08/27 13:10:25;;;;;;;1.05;0.82;;;;;;;17.89;100.00;97757.34;15293775;19;20086;-84
2023/08/27 13:15:53;;;;;;;1.23;0.70;;;;;;;17.92;100.00;97748.72;15296003;19;20014;-84
2023/08/27 13:21:28;;;;;;;1.02;0.80;;;;;;;18.04;100.00;97737.94;15289197;19;20029;-85
2023/08/27 13:26:54;;;;;;;1.10;0.90;;;;;;;18.20;100.00;97735.66;15300746;19;20019;-85
2023/08/27 13:32:20;;;;;;;1.35;0.82;;;;;;;18.37;100.00;97731.28;15292410;19;20021;-84
2023/08/27 13:37:51;;;;;;;0.80;0.63;;;;;;;18.46;100.00;97727.16;15297423;19;20015;-84
2023/08/27 13:43:21;;;;;;;1.05;0.63;;;;;;;18.64;100.00;97720.00;15303481;19;20014;-84
2023/08/27 13:48:51;;;;;;;1.13;0.70;;;;;;;18.75;100.00;97715.66;15312714;19;20014;-84
2023/08/27 13:54:11;;;;;;;1.10;0.70;;;;;;;18.88;100.00;97696.38;15296033;19;20038;-85
2023/08/27 13:59:38;;;;;;;1.77;0.65;;;;;;;19.04;100.00;97680.44;15315525;19;20081;-85
2023/08/27 14:05:04;;;;;;;1.25;0.70;;;;;;;19.05;100.00;97684.81;15309136;19;20089;-84
2023/08/27 14:10:38;;;;;;;1.88;0.80;;;;;;;19.08;100.00;97695.25;15310882;19;20023;-85
2023/08/27 14:16:05;;;;;;;1.85;0.73;;;;;;;19.23;100.00;97700.25;15310880;19;20050;-83
2023/08/27 14:21:30;;;;;;;1.67;0.70;;;;;;;19.36;100.00;97683.66;15301116;19;20014;-85
2023/08/27 14:26:57;;;;;;;0.80;0.77;;;;;;;19.42;100.00;97697.44;15309274;19;20028;-84
2023/08/27 14:32:23;;;;;;;1.20;0.80;;;;;;;19.45;100.00;97686.03;15292271;19;20018;-85
2023/08/27 14:37:47;;;;;;;1.65;0.80;;;;;;;19.50;100.00;97673.34;15301485;19;20006;-82
2023/08/27 14:43:15;;;;;;;0.98;0.70;;;;;;;19.51;100.00;97685.09;15283733;19;20078;-49
2023/08/27 14:48:40;;;;;;;0.90;0.70;;;;;;;19.50;100.00;97692.47;15274497;19;20082;-52
2023/08/27 14:54:06;;;;;;;3.92;0.65;;;;;;;19.45;100.00;97686.88;15271855;19;20028;-51
2023/08/27 14:59:47;;;;;;;1.15;0.82;;;;;;;19.46;100.00;97715.03;15264205;19;20017;-54
2023/08/27 15:05:16;;;;;;;2.47;0.68;;;;;;;19.45;100.00;97694.25;15267896;19;20010;-53
2023/08/27 15:10:41;;;;;;;2.15;0.70;;;;;;;19.38;100.00;97708.00;15269020;19;20019;-50
2023/08/27 15:16:09;;;;;;;1.67;0.82;;;;;;;19.35;100.00;97698.38;15272907;19;20239;-54
2023/08/27 15:21:36;;;;;;;1.50;0.77;;;;;;;19.32;100.00;97698.88;15272410;19;20021;-53
2023/08/27 15:27:04;;;;;;;1.42;0.80;;;;;;;19.29;100.00;97695.75;15274451;19;20381;-50
2023/08/27 15:32:31;;;;;;;0.90;0.70;;;;;;;19.25;100.00;97696.25;15256793;19;20014;-57
2023/08/27 15:37:56;;;;;;;0.88;0.55;;;;;;;19.24;100.00;97685.53;15275108;19;20017;-55
2023/08/27 15:43:40;;;;;;;0.95;0.80;;;;;;;19.21;100.00;97680.56;15271229;19;20055;-53
2023/08/27 15:49:09;;;;;;;1.08;0.60;;;;;;;19.16;100.00;97684.00;15272065;19;20043;-50
2023/08/27 15:54:35;;;;;;;1.00;0.75;;;;;;;19.13;100.00;97683.63;15270891;19;20041;-52
2023/08/27 16:00:00;;;;;;;1.73;0.73;;;;;;;19.07;100.00;97682.66;15270179;19;20487;-54
2023/08/27 16:05:27;;;;;;;1.10;0.60;;;;;;;19.05;100.00;97693.81;15257323;19;20018;-56
2023/08/27 16:10:54;;;;;;;1.83;0.90;;;;;;;19.01;100.00;97692.63;15269142;19;20023;-54
2023/08/27 16:16:18;;;;;;;1.23;0.75;;;;;;;18.98;100.00;97701.31;15271710;19;20054;-53
2023/08/27 16:21:46;;;;;;;1.15;0.60;;;;;;;18.91;100.00;97711.44;15270718;19;20015;-52
2023/08/27 16:27:11;;;;;;;1.08;0.88;;;;;;;18.91;100.00;97714.16;15274803;19;20085;-52
2023/08/27 16:32:37;;;;;;;0.75;0.60;;;;;;;18.90;100.00;97715.22;15266938;19;20014;-50
2023/08/27 16:38:05;;;;;;;0.93;0.70;;;;;;;18.89;100.00;97719.88;15260815;19;20021;-52
2023/08/27 16:43:30;;;;;;;1.05;0.60;;;;;;;18.88;100.00;97715.47;15265055;19;20010;-51
2023/08/27 16:48:55;;;;;;;0.98;0.70;;;;;;;18.90;100.00;97702.44;15269867;19;20341;-51
2023/08/27 16:54:24;;;;;;;1.17;0.60;;;;;;;18.91;100.00;97711.44;15278572;19;20019;-51
2023/08/27 17:00:05;;;;;;;1.08;0.68;;;;;;;18.84;100.00;97721.63;15273366;19;20861;-51
2023/08/27 17:05:30;;;;;;;1.75;0.68;;;;;;;18.50;100.00;97743.06;15268095;19;20018;-54
2023/08/27 17:10:58;;;;;;;1.02;0.43;;;;;;;17.76;100.00;97757.50;15257450;19;20021;-53
2023/08/27 17:16:24;;;;;;;0.55;0.50;;;;;;;17.20;100.00;97768.19;15280847;19;20026;-51
2023/08/27 17:21:51;;;;;;;1.35;0.40;;;;;;;16.82;100.00;97780.75;15277536;19;20016;-52
2023/08/27 17:27:22;;;;;;;3.58;0.80;;;;;;;15.81;100.00;97801.94;15281454;19;20014;-57
2023/08/27 17:32:46;;;;;;;1.57;0.77;;;;;;;15.21;100.00;97821.75;15277922;19;20014;-57
2023/08/27 17:38:11;;;;;;;1.35;0.65;;;;;;;14.90;100.00;97869.25;15282317;19;20018;-57
2023/08/27 17:43:45;;;;;;;1.27;0.60;;;;;;;14.63;100.00;97877.25;15270626;19;20035;-58
2023/08/27 17:49:11;;;;;;;0.77;0.70;;;;;;;14.60;100.00;97872.22;15281063;19;20015;-55
2023/08/27 17:54:35;;;;;;;1.77;0.63;;;;;;;14.55;100.00;97913.47;15263758;19;20018;-58
2023/08/27 18:00:03;;;;;;;1.42;0.70;;;;;;;14.50;100.00;97937.63;15278886;19;20018;-54
2023/08/27 18:05:27;;;;;;;0.75;0.70;;;;;;;14.47;100.00;97954.28;15281544;19;20022;-56
2023/08/27 18:10:52;;;;;;;1.55;0.80;;;;;;;14.45;100.00;97957.19;15246340;19;20007;-57
2023/08/27 18:16:19;;;;;;;0.63;0.63;;;;;;;14.47;100.00;97952.41;15278443;19;20026;-57
2023/08/27 18:21:45;;;;;;;1.90;0.80;;;;;;;14.44;100.00;97988.03;15272807;19;20025;-55
2023/08/27 18:27:09;;;;;;;1.15;0.70;;;;;;;14.42;100.00;97992.81;15276413;19;20036;-54
2023/08/27 18:32:37;;;;;;;2.08;0.70;;;;;;;14.42;100.00;98000.94;15269863;19;20363;-55
2023/08/27 18:38:01;;;;;;;1.13;0.70;;;;;;;14.41;100.00;98009.28;15278748;19;20050;-57
2023/08/27 18:43:33;;;;;;;0.68;0.60;;;;;;;14.40;100.00;98016.59;15263500;19;20032;-56
2023/08/27 18:49:01;;;;;;;1.75;0.90;;;;;;;14.39;100.00;98042.00;15273586;19;20017;-56
2023/08/27 18:54:25;;;;;;;2.05;0.88;;;;;;;14.37;100.00;98040.50;15273253;19;20035;-56
2023/08/27 18:59:52;;;;;;;1.23;0.80;;;;;;;14.37;100.00;98049.50;15271806;19;20025;-56
2023/08/27 19:05:19;;;;;;;1.02;0.70;;;;;;;14.38;100.00;98047.59;15271304;19;20033;-56
2023/08/27 19:10:44;;;;;;;2.25;0.90;;;;;;;14.40;100.00;98045.53;15268186;19;20022;-56
2023/08/27 19:16:08;;;;;;;1.42;0.75;;;;;;;14.39;100.00;98069.09;15257368;19;20474;-51
2023/08/27 19:21:36;;;;;;;2.08;0.90;;;;;;;14.33;100.00;98080.72;15272207;19;20010;-55
2023/08/27 19:27:00;;;;;;;1.25;0.80;;;;;;;14.26;100.00;98107.72;15252835;19;20018;-58
2023/08/27 19:32:25;;;;;;;1.67;1.00;;;;;;;14.29;100.00;98104.66;15269180;19;20082;-61
2023/08/27 19:37:52;;;;;;;2.70;1.20;;;;;;;14.31;100.00;98096.31;15271482;19;20017;-60
2023/08/27 19:43:17;;;;;;;1.05;0.90;;;;;;;14.36;100.00;98104.72;15264966;19;20744;-61
2023/08/27 19:48:42;;;;;;;1.10;1.00;;;;;;;14.41;100.00;98113.09;15259720;19;20022;-62
2023/08/27 19:54:12;;;;;;;2.45;1.00;;;;;;;14.43;100.00;98116.44;15269116;19;20026;-61
2023/08/27 19:59:36;;;;;;;1.48;1.05;;;;;;;14.45;100.00;98118.97;15270577;19;20078;-61
2023/08/27 20:05:00;;;;;;;1.67;1.00;;;;;;;14.47;100.00;98123.16;15268028;19;20021;-60
2023/08/27 20:10:28;;;;;;;1.27;1.00;;;;;;;14.49;100.00;98120.25;15264885;19;20015;-61
2023/08/27 20:15:56;;;;;;;2.85;1.00;;;;;;;14.51;100.00;98130.91;15271517;19;20035;-59
2023/08/27 20:21:20;;;;;;;1.48;0.93;;;;;;;14.49;100.00;98137.38;15256863;19;20717;-62
2023/08/27 20:26:48;;;;;;;2.00;1.05;;;;;;;14.51;100.00;98130.91;15272138;19;20018;-62
2023/08/27 20:32:16;;;;;;;1.52;0.80;;;;;;;14.49;100.00;98129.25;15268057;19;20019;-58
2023/08/27 20:37:40;;;;;;;1.38;0.82;;;;;;;14.50;100.00;98135.50;15267892;19;20016;-60
2023/08/27 20:43:11;;;;;;;0.80;0.80;;;;;;;14.51;100.00;98145.31;15266279;19;20019;-60
2023/08/27 20:48:36;;;;;;;0.70;0.70;;;;;;;14.51;100.00;98147.19;15270536;19;20018;-62
2023/08/27 20:54:02;;;;;;;1.08;0.80;;;;;;;14.51;100.00;98158.03;15259744;19;20077;-61
2023/08/27 20:59:30;;;;;;;0.52;0.52;;;;;;;14.49;100.00;98159.06;15265205;19;20353;-62
2023/08/27 21:04:54;;;;;;;1.75;0.80;;;;;;;14.47;100.00;98144.84;15263691;19;20498;-61
2023/08/27 21:10:19;;;;;;;0.77;0.75;;;;;;;14.45;100.00;98133.38;15267762;19;20495;-58
2023/08/27 21:15:49;;;;;;;0.60;0.60;;;;;;;14.46;100.00;98140.47;15266352;19;20089;-58
2023/08/27 21:21:14;;;;;;;1.33;0.60;;;;;;;14.43;100.00;98137.31;15266270;19;20018;-60
2023/08/27 21:26:37;;;;;;;1.15;0.60;;;;;;;14.42;100.00;98136.44;15257701;19;20014;-61
2023/08/27 21:32:06;;;;;;;1.63;0.60;;;;;;;14.40;100.00;98153.94;15263083;19;20086;-59
2023/08/27 21:37:32;;;;;;;1.40;0.70;;;;;;;14.37;100.00;98143.47;15267089;19;20082;-62
2023/08/27 21:43:04;;;;;;;0.80;0.80;;;;;;;14.33;100.00;98148.44;15262262;19;20035;-61
2023/08/27 21:48:32;;;;;;;0.80;0.77;;;;;;;14.31;100.00;98150.50;15268535;19;20714;-61
2023/08/27 21:53:57;;;;;;;1.35;0.82;;;;;;;14.29;100.00;98144.44;15265347;19;20355;-63
2023/08/27 21:59:21;;;;;;;1.02;0.80;;;;;;;14.28;100.00;98156.34;15258584;19;20018;-62
2023/08/27 22:04:49;;;;;;;0.75;0.70;;;;;;;14.26;100.00;98158.41;15273735;19;20010;-61
2023/08/27 22:10:14;;;;;;;1.88;0.60;;;;;;;14.24;100.00;98168.56;15276653;19;20061;-62
2023/08/27 22:15:39;;;;;;;0.60;0.60;;;;;;;14.20;100.00;98165.41;15277400;19;20019;-62
2023/08/27 22:21:06;;;;;;;1.40;0.70;;;;;;;14.20;100.00;98169.97;15277437;19;20007;-60
2023/08/27 22:26:31;;;;;;;1.60;0.90;;;;;;;14.15;100.00;98168.69;15279268;19;20019;-60
2023/08/27 22:31:55;;;;;;;2.85;0.80;;;;;;;14.13;100.00;98170.75;15264067;19;20026;-60
2023/08/27 22:37:23;;;;;;;2.05;0.80;;;;;;;14.05;100.00;98179.00;15277543;19;20018;-59
2023/08/27 22:42:47;;;;;;;1.20;0.90;;;;;;;14.03;100.00;98187.28;15272773;19;20029;-62
2023/08/27 22:48:13;;;;;;;0.80;0.77;;;;;;;14.02;100.00;98184.78;15267308;19;20033;-48
2023/08/27 22:53:41;;;;;;;0.60;0.60;;;;;;;13.99;100.00;98180.56;15268270;19;20010;-47
2023/08/27 22:59:07;;;;;;;1.25;0.80;;;;;;;13.97;100.00;98177.25;15274193;19;20014;-48
2023/08/27 23:04:33;;;;;;;1.05;0.70;;;;;;;13.96;100.00;98174.69;15261542;19;20433;-47
2023/08/27 23:10:00;;;;;;;1.33;0.80;;;;;;;13.94;100.00;98176.75;15272380;19;20014;-52
2023/08/27 23:15:26;;;;;;;2.10;0.90;;;;;;;13.92;100.00;98179.66;15274294;19;20011;-49
2023/08/27 23:20:51;;;;;;;0.70;0.70;;;;;;;13.87;100.00;98182.94;15271287;19;20017;-50
2023/08/27 23:26:18;;;;;;;0.90;0.70;;;;;;;13.83;100.00;98183.50;15275759;19;20011;-46
2023/08/27 23:31:44;;;;;;;1.73;0.90;;;;;;;13.76;100.00;98194.25;15271691;19;20105;-46
2023/08/27 23:37:09;;;;;;;1.40;1.00;;;;;;;13.64;100.00;98174.91;15263718;19;20011;-49
2023/08/27 23:42:37;;;;;;;1.50;1.10;;;;;;;13.54;100.00;98168.94;15273407;19;20363;-46
2023/08/27 23:48:01;;;;;;;2.05;0.93;;;;;;;13.46;100.00;98169.03;15272211;19;20078;-52
2023/08/27 23:53:27;;;;;;;1.45;1.20;;;;;;;13.37;100.00;98161.00;15271212;19;20014;-48
2023/08/27 23:58:54;;;;;;;1.60;0.93;;;;;;;13.31;100.00;98169.84;15271300;19;20018;-51
